sensor_id;sensor_type;location;lat;lon;timestamp;P1;durP1;ratioP1;P2;durP2;ratioP2
46308;SDS011;32037;50.820;6.494;2022-09-03T00:01:18;1.57;;;1.47;;
46308;SDS011;32037;50.820;6.494;2022-09-03T00:03:51;1.63;;;1.53;;
46308;SDS011;32037;50.820;6.494;2022-09-03T00:06:25;2.27;;;1.40;;
46308;SDS011;32037;50.820;6.494;2022-09-03T00:08:59;1.47;;;1.37;;
46308;SDS011;32037;50.820;6.494;2022-09-03T00:11:34;1.93;;;1.30;;
46308;SDS011;32037;50.820;6.494;2022-09-03T00:14:09;2.20;;;1.40;;
46308;SDS011;32037;50.820;6.494;2022-09-03T00:16:43;2.00;;;1.33;;
46308;SDS011;32037;50.820;6.494;2022-09-03T00:19:16;2.97;;;1.50;;
46308;SDS011;32037;50.820;6.494;2022-09-03T00:21:50;2.67;;;2.30;;
46308;SDS011;32037;50.820;6.494;2022-09-03T00:24:23;1.93;;;1.20;;
46308;SDS011;32037;50.820;6.494;2022-09-03T00:26:59;1.40;;;1.30;;
46308;SDS011;32037;50.820;6.494;2022-09-03T00:29:32;2.23;;;1.33;;
46308;SDS011;32037;50.820;6.494;2022-09-03T00:32:07;1.40;;;1.30;;
46308;SDS011;32037;50.820;6.494;2022-09-03T00:34:41;3.43;;;1.80;;
46308;SDS011;32037;50.820;6.494;2022-09-03T00:37:33;1.53;;;1.40;;
46308;SDS011;32037;50.820;6.494;2022-09-03T00:40:30;1.57;;;1.47;;
46308;SDS011;32037;50.820;6.494;2022-09-03T00:43:26;1.80;;;1.70;;
46308;SDS011;32037;50.820;6.494;2022-09-03T00:46:13;1.23;;;1.10;;
46308;SDS011;32037;50.820;6.494;2022-09-03T00:48:52;1.50;;;1.30;;
46308;SDS011;32037;50.820;6.494;2022-09-03T00:54:56;1.40;;;1.20;;
46308;SDS011;32037;50.820;6.494;2022-09-03T00:57:50;2.03;;;1.30;;
46308;SDS011;32037;50.820;6.494;2022-09-03T01:00:32;1.40;;;1.30;;
46308;SDS011;32037;50.820;6.494;2022-09-03T01:03:03;1.73;;;1.63;;
46308;SDS011;32037;50.820;6.494;2022-09-03T01:08:37;1.87;;;1.30;;
46308;SDS011;32037;50.820;6.494;2022-09-03T01:11:22;2.00;;;1.50;;
46308;SDS011;32037;50.820;6.494;2022-09-03T01:13:59;1.20;;;1.10;;
46308;SDS011;32037;50.820;6.494;2022-09-03T01:16:42;1.37;;;1.27;;
46308;SDS011;32037;50.820;6.494;2022-09-03T01:19:23;2.50;;;1.50;;
46308;SDS011;32037;50.820;6.494;2022-09-03T01:22:22;1.30;;;1.20;;
46308;SDS011;32037;50.820;6.494;2022-09-03T01:25:13;1.47;;;1.37;;
46308;SDS011;32037;50.820;6.494;2022-09-03T01:27:45;2.20;;;1.27;;
46308;SDS011;32037;50.820;6.494;2022-09-03T01:30:25;1.53;;;1.43;;
46308;SDS011;32037;50.820;6.494;2022-09-03T01:32:56;1.67;;;1.57;;
46308;SDS011;32037;50.820;6.494;2022-09-03T01:35:32;1.90;;;1.53;;
46308;SDS011;32037;50.820;6.494;2022-09-03T01:38:11;1.70;;;1.60;;
46308;SDS011;32037;50.820;6.494;2022-09-03T01:40:49;1.20;;;1.10;;
46308;SDS011;32037;50.820;6.494;2022-09-03T01:43:52;1.40;;;1.30;;
46308;SDS011;32037;50.820;6.494;2022-09-03T01:46:31;2.60;;;1.40;;
46308;SDS011;32037;50.820;6.494;2022-09-03T01:49:10;2.37;;;1.50;;
46308;SDS011;32037;50.820;6.494;2022-09-03T01:51:49;1.70;;;1.60;;
46308;SDS011;32037;50.820;6.494;2022-09-03T01:54:29;1.10;;;1.00;;
46308;SDS011;32037;50.820;6.494;2022-09-03T01:57:24;1.70;;;1.60;;
46308;SDS011;32037;50.820;6.494;2022-09-03T02:00:09;1.70;;;1.03;;
46308;SDS011;32037;50.820;6.494;2022-09-03T02:03:03;1.43;;;1.33;;
46308;SDS011;32037;50.820;6.494;2022-09-03T02:05:33;1.70;;;1.50;;
46308;SDS011;32037;50.820;6.494;2022-09-03T02:08:02;1.40;;;1.20;;
46308;SDS011;32037;50.820;6.494;2022-09-03T02:10:33;2.97;;;1.03;;
46308;SDS011;32037;50.820;6.494;2022-09-03T02:13:09;1.83;;;1.40;;
46308;SDS011;32037;50.820;6.494;2022-09-03T02:15:42;1.70;;;1.50;;
46308;SDS011;32037;50.820;6.494;2022-09-03T02:18:14;1.30;;;1.20;;
46308;SDS011;32037;50.820;6.494;2022-09-03T02:20:45;2.07;;;1.40;;
46308;SDS011;32037;50.820;6.494;2022-09-03T02:23:15;1.63;;;1.53;;
46308;SDS011;32037;50.820;6.494;2022-09-03T02:25:50;1.10;;;1.00;;
46308;SDS011;32037;50.820;6.494;2022-09-03T02:28:22;1.50;;;1.40;;
46308;SDS011;32037;50.820;6.494;2022-09-03T02:30:52;1.50;;;1.40;;
46308;SDS011;32037;50.820;6.494;2022-09-03T02:33:22;1.60;;;1.50;;
46308;SDS011;32037;50.820;6.494;2022-09-03T02:35:51;1.40;;;1.30;;
46308;SDS011;32037;50.820;6.494;2022-09-03T02:38:21;1.57;;;1.30;;
46308;SDS011;32037;50.820;6.494;2022-09-03T02:40:52;1.77;;;1.40;;
46308;SDS011;32037;50.820;6.494;2022-09-03T02:43:21;1.73;;;1.33;;
46308;SDS011;32037;50.820;6.494;2022-09-03T02:45:56;1.33;;;1.23;;
46308;SDS011;32037;50.820;6.494;2022-09-03T02:48:31;1.23;;;1.13;;
46308;SDS011;32037;50.820;6.494;2022-09-03T02:51:01;1.47;;;1.37;;
46308;SDS011;32037;50.820;6.494;2022-09-03T02:53:40;2.93;;;1.27;;
46308;SDS011;32037;50.820;6.494;2022-09-03T02:56:08;1.90;;;1.70;;
46308;SDS011;32037;50.820;6.494;2022-09-03T02:58:37;1.47;;;1.37;;
46308;SDS011;32037;50.820;6.494;2022-09-03T03:01:07;1.37;;;1.27;;
46308;SDS011;32037;50.820;6.494;2022-09-03T03:03:43;1.83;;;1.13;;
46308;SDS011;32037;50.820;6.494;2022-09-03T03:06:12;1.30;;;1.17;;
46308;SDS011;32037;50.820;6.494;2022-09-03T03:08:40;1.77;;;1.67;;
46308;SDS011;32037;50.820;6.494;2022-09-03T03:11:09;1.30;;;1.10;;
46308;SDS011;32037;50.820;6.494;2022-09-03T03:13:38;1.47;;;1.37;;
46308;SDS011;32037;50.820;6.494;2022-09-03T03:16:11;1.23;;;0.80;;
46308;SDS011;32037;50.820;6.494;2022-09-03T03:18:41;1.43;;;1.33;;
46308;SDS011;32037;50.820;6.494;2022-09-03T03:21:12;1.50;;;1.40;;
46308;SDS011;32037;50.820;6.494;2022-09-03T03:23:41;1.47;;;1.20;;
46308;SDS011;32037;50.820;6.494;2022-09-03T03:26:10;1.47;;;1.17;;
46308;SDS011;32037;50.820;6.494;2022-09-03T03:28:40;1.50;;;1.40;;
46308;SDS011;32037;50.820;6.494;2022-09-03T03:31:09;1.50;;;1.27;;
46308;SDS011;32037;50.820;6.494;2022-09-03T03:33:40;1.40;;;1.30;;
46308;SDS011;32037;50.820;6.494;2022-09-03T03:36:10;1.27;;;1.00;;
46308;SDS011;32037;50.820;6.494;2022-09-03T03:38:40;1.73;;;1.30;;
46308;SDS011;32037;50.820;6.494;2022-09-03T03:41:08;1.23;;;1.10;;
46308;SDS011;32037;50.820;6.494;2022-09-03T03:43:38;1.40;;;1.13;;
46308;SDS011;32037;50.820;6.494;2022-09-03T03:46:06;1.60;;;1.20;;
46308;SDS011;32037;50.820;6.494;2022-09-03T03:48:37;1.30;;;1.17;;
46308;SDS011;32037;50.820;6.494;2022-09-03T03:51:06;2.27;;;1.50;;
46308;SDS011;32037;50.820;6.494;2022-09-03T03:53:37;1.10;;;1.00;;
46308;SDS011;32037;50.820;6.494;2022-09-03T03:56:06;1.40;;;1.03;;
46308;SDS011;32037;50.820;6.494;2022-09-03T03:58:36;3.30;;;1.50;;
46308;SDS011;32037;50.820;6.494;2022-09-03T04:01:08;1.73;;;1.50;;
46308;SDS011;32037;50.820;6.494;2022-09-03T04:03:39;1.47;;;1.20;;
46308;SDS011;32037;50.820;6.494;2022-09-03T04:06:09;1.00;;;0.90;;
46308;SDS011;32037;50.820;6.494;2022-09-03T04:08:39;1.30;;;1.20;;
46308;SDS011;32037;50.820;6.494;2022-09-03T04:11:12;1.60;;;1.50;;
46308;SDS011;32037;50.820;6.494;2022-09-03T04:13:42;1.40;;;1.30;;
46308;SDS011;32037;50.820;6.494;2022-09-03T04:16:12;1.43;;;1.33;;
46308;SDS011;32037;50.820;6.494;2022-09-03T04:18:43;1.47;;;1.30;;
46308;SDS011;32037;50.820;6.494;2022-09-03T04:21:12;3.73;;;1.23;;
46308;SDS011;32037;50.820;6.494;2022-09-03T04:23:43;1.20;;;1.10;;
46308;SDS011;32037;50.820;6.494;2022-09-03T04:26:13;1.90;;;1.70;;
46308;SDS011;32037;50.820;6.494;2022-09-03T04:28:43;1.53;;;1.17;;
46308;SDS011;32037;50.820;6.494;2022-09-03T04:31:14;1.43;;;1.27;;
46308;SDS011;32037;50.820;6.494;2022-09-03T04:33:46;1.53;;;1.27;;
46308;SDS011;32037;50.820;6.494;2022-09-03T04:36:17;1.67;;;1.50;;
46308;SDS011;32037;50.820;6.494;2022-09-03T04:38:47;1.37;;;1.27;;
46308;SDS011;32037;50.820;6.494;2022-09-03T04:41:17;1.90;;;1.43;;
46308;SDS011;32037;50.820;6.494;2022-09-03T04:43:46;1.50;;;1.20;;
46308;SDS011;32037;50.820;6.494;2022-09-03T04:46:17;1.23;;;1.13;;
46308;SDS011;32037;50.820;6.494;2022-09-03T04:48:49;1.37;;;1.27;;
46308;SDS011;32037;50.820;6.494;2022-09-03T04:51:18;1.73;;;1.20;;
46308;SDS011;32037;50.820;6.494;2022-09-03T04:53:52;2.73;;;1.10;;
46308;SDS011;32037;50.820;6.494;2022-09-03T04:56:23;1.53;;;1.20;;
46308;SDS011;32037;50.820;6.494;2022-09-03T04:58:53;1.87;;;1.30;;
46308;SDS011;32037;50.820;6.494;2022-09-03T05:01:23;1.53;;;1.43;;
46308;SDS011;32037;50.820;6.494;2022-09-03T05:03:55;3.00;;;1.47;;
46308;SDS011;32037;50.820;6.494;2022-09-03T05:06:24;1.67;;;1.43;;
46308;SDS011;32037;50.820;6.494;2022-09-03T05:08:53;1.27;;;1.17;;
46308;SDS011;32037;50.820;6.494;2022-09-03T05:11:23;1.30;;;1.20;;
46308;SDS011;32037;50.820;6.494;2022-09-03T05:13:52;1.50;;;1.40;;
46308;SDS011;32037;50.820;6.494;2022-09-03T05:16:22;2.27;;;1.60;;
46308;SDS011;32037;50.820;6.494;2022-09-03T05:18:55;1.10;;;0.90;;
46308;SDS011;32037;50.820;6.494;2022-09-03T05:21:27;2.07;;;1.50;;
46308;SDS011;32037;50.820;6.494;2022-09-03T05:23:58;1.23;;;1.13;;
46308;SDS011;32037;50.820;6.494;2022-09-03T05:26:27;1.87;;;1.57;;
46308;SDS011;32037;50.820;6.494;2022-09-03T05:28:57;1.23;;;1.13;;
46308;SDS011;32037;50.820;6.494;2022-09-03T05:31:28;0.80;;;0.80;;
46308;SDS011;32037;50.820;6.494;2022-09-03T05:34:01;1.20;;;1.10;;
46308;SDS011;32037;50.820;6.494;2022-09-03T05:36:31;1.17;;;1.10;;
46308;SDS011;32037;50.820;6.494;2022-09-03T05:39:01;1.10;;;1.00;;
46308;SDS011;32037;50.820;6.494;2022-09-03T05:41:30;1.33;;;1.23;;
46308;SDS011;32037;50.820;6.494;2022-09-03T05:43:59;1.50;;;1.30;;
46308;SDS011;32037;50.820;6.494;2022-09-03T05:46:29;1.43;;;1.33;;
46308;SDS011;32037;50.820;6.494;2022-09-03T05:49:01;1.70;;;1.13;;
46308;SDS011;32037;50.820;6.494;2022-09-03T05:51:31;1.20;;;1.10;;
46308;SDS011;32037;50.820;6.494;2022-09-03T05:54:00;2.27;;;1.07;;
46308;SDS011;32037;50.820;6.494;2022-09-03T05:56:29;1.20;;;1.10;;
46308;SDS011;32037;50.820;6.494;2022-09-03T05:59:01;1.63;;;1.37;;
46308;SDS011;32037;50.820;6.494;2022-09-03T06:01:35;1.20;;;1.10;;
46308;SDS011;32037;50.820;6.494;2022-09-03T06:04:06;1.60;;;1.30;;
46308;SDS011;32037;50.820;6.494;2022-09-03T06:06:37;1.10;;;1.00;;
46308;SDS011;32037;50.820;6.494;2022-09-03T06:09:07;1.17;;;1.07;;
46308;SDS011;32037;50.820;6.494;2022-09-03T06:11:37;1.00;;;0.90;;
46308;SDS011;32037;50.820;6.494;2022-09-03T06:14:09;1.83;;;1.60;;
46308;SDS011;32037;50.820;6.494;2022-09-03T06:16:39;1.70;;;1.60;;
46308;SDS011;32037;50.820;6.494;2022-09-03T06:19:10;1.40;;;1.17;;
46308;SDS011;32037;50.820;6.494;2022-09-03T06:21:40;1.00;;;1.00;;
46308;SDS011;32037;50.820;6.494;2022-09-03T06:24:10;1.10;;;1.00;;
46308;SDS011;32037;50.820;6.494;2022-09-03T06:26:40;1.17;;;1.07;;
46308;SDS011;32037;50.820;6.494;2022-09-03T06:29:09;2.37;;;1.03;;
46308;SDS011;32037;50.820;6.494;2022-09-03T06:31:37;1.87;;;1.20;;
46308;SDS011;32037;50.820;6.494;2022-09-03T06:34:06;1.93;;;1.40;;
46308;SDS011;32037;50.820;6.494;2022-09-03T06:36:36;1.70;;;1.40;;
46308;SDS011;32037;50.820;6.494;2022-09-03T06:39:04;1.50;;;1.03;;
46308;SDS011;32037;50.820;6.494;2022-09-03T06:41:32;1.23;;;1.10;;
46308;SDS011;32037;50.820;6.494;2022-09-03T06:44:02;1.87;;;1.13;;
46308;SDS011;32037;50.820;6.494;2022-09-03T06:46:32;1.87;;;1.20;;
46308;SDS011;32037;50.820;6.494;2022-09-03T06:49:01;1.13;;;1.03;;
46308;SDS011;32037;50.820;6.494;2022-09-03T06:51:30;1.20;;;0.93;;
46308;SDS011;32037;50.820;6.494;2022-09-03T06:54:02;1.17;;;1.03;;
46308;SDS011;32037;50.820;6.494;2022-09-03T06:56:31;2.60;;;1.13;;
46308;SDS011;32037;50.820;6.494;2022-09-03T06:59:06;1.10;;;0.90;;
46308;SDS011;32037;50.820;6.494;2022-09-03T07:01:35;1.53;;;1.20;;
46308;SDS011;32037;50.820;6.494;2022-09-03T07:04:10;1.20;;;1.10;;
46308;SDS011;32037;50.820;6.494;2022-09-03T07:06:42;1.57;;;1.20;;
46308;SDS011;32037;50.820;6.494;2022-09-03T07:09:13;1.20;;;1.10;;
46308;SDS011;32037;50.820;6.494;2022-09-03T07:11:44;1.20;;;1.10;;
46308;SDS011;32037;50.820;6.494;2022-09-03T07:14:15;1.70;;;1.60;;
46308;SDS011;32037;50.820;6.494;2022-09-03T07:16:47;1.00;;;0.90;;
46308;SDS011;32037;50.820;6.494;2022-09-03T07:19:16;1.80;;;1.30;;
46308;SDS011;32037;50.820;6.494;2022-09-03T07:21:45;1.10;;;1.00;;
46308;SDS011;32037;50.820;6.494;2022-09-03T07:24:18;1.17;;;1.07;;
46308;SDS011;32037;50.820;6.494;2022-09-03T07:26:47;2.00;;;1.00;;
46308;SDS011;32037;50.820;6.494;2022-09-03T07:29:16;1.00;;;1.00;;
46308;SDS011;32037;50.820;6.494;2022-09-03T07:31:47;1.23;;;0.97;;
46308;SDS011;32037;50.820;6.494;2022-09-03T07:34:19;1.40;;;1.10;;
46308;SDS011;32037;50.820;6.494;2022-09-03T07:36:51;1.80;;;1.43;;
46308;SDS011;32037;50.820;6.494;2022-09-03T07:39:21;2.63;;;1.30;;
46308;SDS011;32037;50.820;6.494;2022-09-03T07:41:50;1.20;;;1.10;;
46308;SDS011;32037;50.820;6.494;2022-09-03T07:44:19;1.40;;;0.90;;
46308;SDS011;32037;50.820;6.494;2022-09-03T07:46:50;1.70;;;1.60;;
46308;SDS011;32037;50.820;6.494;2022-09-03T07:49:23;2.43;;;1.40;;
46308;SDS011;32037;50.820;6.494;2022-09-03T07:51:51;1.50;;;1.30;;
46308;SDS011;32037;50.820;6.494;2022-09-03T07:54:21;1.00;;;1.00;;
46308;SDS011;32037;50.820;6.494;2022-09-03T07:56:52;2.67;;;1.60;;
46308;SDS011;32037;50.820;6.494;2022-09-03T07:59:22;1.10;;;1.00;;
46308;SDS011;32037;50.820;6.494;2022-09-03T08:01:51;1.00;;;1.00;;
46308;SDS011;32037;50.820;6.494;2022-09-03T08:04:20;1.07;;;0.87;;
46308;SDS011;32037;50.820;6.494;2022-09-03T08:06:48;1.40;;;1.30;;
46308;SDS011;32037;50.820;6.494;2022-09-03T08:09:22;1.03;;;0.90;;
46308;SDS011;32037;50.820;6.494;2022-09-03T08:11:50;4.90;;;1.10;;
46308;SDS011;32037;50.820;6.494;2022-09-03T08:14:19;1.00;;;0.80;;
46308;SDS011;32037;50.820;6.494;2022-09-03T08:16:48;2.10;;;1.03;;
46308;SDS011;32037;50.820;6.494;2022-09-03T08:19:17;1.43;;;1.10;;
46308;SDS011;32037;50.820;6.494;2022-09-03T08:21:46;1.23;;;0.90;;
46308;SDS011;32037;50.820;6.494;2022-09-03T08:24:14;1.17;;;0.90;;
46308;SDS011;32037;50.820;6.494;2022-09-03T08:26:46;2.07;;;1.43;;
46308;SDS011;32037;50.820;6.494;2022-09-03T08:29:18;1.13;;;1.03;;
46308;SDS011;32037;50.820;6.494;2022-09-03T08:31:47;2.03;;;1.60;;
46308;SDS011;32037;50.820;6.494;2022-09-03T08:34:15;1.37;;;1.10;;
46308;SDS011;32037;50.820;6.494;2022-09-03T08:36:44;1.20;;;1.10;;
46308;SDS011;32037;50.820;6.494;2022-09-03T08:39:13;2.97;;;1.20;;
46308;SDS011;32037;50.820;6.494;2022-09-03T08:44:39;4.20;;;1.60;;
46308;SDS011;32037;50.820;6.494;2022-09-03T08:47:13;2.60;;;1.70;;
46308;SDS011;32037;50.820;6.494;2022-09-03T08:49:45;1.63;;;1.53;;
46308;SDS011;32037;50.820;6.494;2022-09-03T08:52:22;1.40;;;1.30;;
46308;SDS011;32037;50.820;6.494;2022-09-03T08:55:01;2.23;;;1.77;;
46308;SDS011;32037;50.820;6.494;2022-09-03T08:57:42;2.23;;;1.27;;
46308;SDS011;32037;50.820;6.494;2022-09-03T09:00:14;1.83;;;1.73;;
46308;SDS011;32037;50.820;6.494;2022-09-03T09:02:46;2.30;;;1.57;;
46308;SDS011;32037;50.820;6.494;2022-09-03T09:05:32;1.97;;;1.47;;
46308;SDS011;32037;50.820;6.494;2022-09-03T09:08:13;1.50;;;1.40;;
46308;SDS011;32037;50.820;6.494;2022-09-03T09:10:53;1.47;;;1.30;;
46308;SDS011;32037;50.820;6.494;2022-09-03T09:13:32;3.10;;;1.40;;
46308;SDS011;32037;50.820;6.494;2022-09-03T09:16:11;1.97;;;1.30;;
46308;SDS011;32037;50.820;6.494;2022-09-03T09:18:53;3.07;;;1.57;;
46308;SDS011;32037;50.820;6.494;2022-09-03T09:21:29;2.50;;;1.90;;
46308;SDS011;32037;50.820;6.494;2022-09-03T09:24:05;2.00;;;1.60;;
46308;SDS011;32037;50.820;6.494;2022-09-03T09:26:39;1.77;;;1.67;;
46308;SDS011;32037;50.820;6.494;2022-09-03T09:29:09;1.60;;;1.50;;
46308;SDS011;32037;50.820;6.494;2022-09-03T09:31:39;1.43;;;1.33;;
46308;SDS011;32037;50.820;6.494;2022-09-03T09:34:10;1.67;;;1.47;;
46308;SDS011;32037;50.820;6.494;2022-09-03T09:36:43;1.47;;;1.37;;
46308;SDS011;32037;50.820;6.494;2022-09-03T09:39:14;1.40;;;1.30;;
46308;SDS011;32037;50.820;6.494;2022-09-03T09:41:55;2.10;;;1.73;;
46308;SDS011;32037;50.820;6.494;2022-09-03T09:44:25;1.77;;;1.57;;
46308;SDS011;32037;50.820;6.494;2022-09-03T09:47:04;5.17;;;1.83;;
46308;SDS011;32037;50.820;6.494;2022-09-03T09:49:34;3.53;;;1.70;;
46308;SDS011;32037;50.820;6.494;2022-09-03T09:52:06;1.93;;;1.40;;
46308;SDS011;32037;50.820;6.494;2022-09-03T09:54:37;1.40;;;1.30;;
46308;SDS011;32037;50.820;6.494;2022-09-03T09:57:13;2.90;;;1.47;;
46308;SDS011;32037;50.820;6.494;2022-09-03T09:59:45;2.50;;;1.30;;
46308;SDS011;32037;50.820;6.494;2022-09-03T10:02:18;2.50;;;1.40;;
46308;SDS011;32037;50.820;6.494;2022-09-03T10:04:54;1.50;;;1.40;;
46308;SDS011;32037;50.820;6.494;2022-09-03T10:07:28;2.37;;;1.67;;
46308;SDS011;32037;50.820;6.494;2022-09-03T10:10:02;1.30;;;1.20;;
46308;SDS011;32037;50.820;6.494;2022-09-03T10:12:34;1.60;;;1.50;;
46308;SDS011;32037;50.820;6.494;2022-09-03T10:15:17;1.43;;;1.33;;
46308;SDS011;32037;50.820;6.494;2022-09-03T10:17:58;2.10;;;1.60;;
46308;SDS011;32037;50.820;6.494;2022-09-03T10:20:33;2.43;;;1.53;;
46308;SDS011;32037;50.820;6.494;2022-09-03T10:23:12;2.20;;;1.50;;
46308;SDS011;32037;50.820;6.494;2022-09-03T10:25:50;1.40;;;1.30;;
46308;SDS011;32037;50.820;6.494;2022-09-03T10:28:30;2.57;;;1.63;;
46308;SDS011;32037;50.820;6.494;2022-09-03T10:31:09;2.23;;;1.40;;
46308;SDS011;32037;50.820;6.494;2022-09-03T10:33:50;2.13;;;1.50;;
46308;SDS011;32037;50.820;6.494;2022-09-03T10:36:26;2.00;;;1.57;;
46308;SDS011;32037;50.820;6.494;2022-09-03T10:39:01;1.50;;;1.40;;
46308;SDS011;32037;50.820;6.494;2022-09-03T10:41:36;1.50;;;1.40;;
46308;SDS011;32037;50.820;6.494;2022-09-03T10:47:20;1.80;;;1.67;;
46308;SDS011;32037;50.820;6.494;2022-09-03T10:50:02;2.57;;;1.80;;
46308;SDS011;32037;50.820;6.494;2022-09-03T10:52:49;1.80;;;1.03;;
46308;SDS011;32037;50.820;6.494;2022-09-03T10:55:37;2.60;;;1.20;;
46308;SDS011;32037;50.820;6.494;2022-09-03T10:58:20;2.17;;;1.47;;
46308;SDS011;32037;50.820;6.494;2022-09-03T11:01:01;1.50;;;1.40;;
46308;SDS011;32037;50.820;6.494;2022-09-03T11:03:40;1.40;;;1.30;;
46308;SDS011;32037;50.820;6.494;2022-09-03T11:06:12;1.67;;;1.57;;
46308;SDS011;32037;50.820;6.494;2022-09-03T11:08:47;1.53;;;1.43;;
46308;SDS011;32037;50.820;6.494;2022-09-03T11:11:31;1.63;;;1.27;;
46308;SDS011;32037;50.820;6.494;2022-09-03T11:14:05;1.63;;;1.27;;
46308;SDS011;32037;50.820;6.494;2022-09-03T11:16:36;1.43;;;1.33;;
46308;SDS011;32037;50.820;6.494;2022-09-03T11:19:12;1.87;;;1.60;;
46308;SDS011;32037;50.820;6.494;2022-09-03T11:21:43;2.50;;;1.70;;
46308;SDS011;32037;50.820;6.494;2022-09-03T11:24:16;1.33;;;1.23;;
46308;SDS011;32037;50.820;6.494;2022-09-03T11:26:49;1.30;;;1.20;;
46308;SDS011;32037;50.820;6.494;2022-09-03T11:29:24;1.73;;;1.33;;
46308;SDS011;32037;50.820;6.494;2022-09-03T11:32:03;2.60;;;1.70;;
46308;SDS011;32037;50.820;6.494;2022-09-03T11:34:44;2.20;;;1.93;;
46308;SDS011;32037;50.820;6.494;2022-09-03T11:37:16;1.93;;;1.70;;
46308;SDS011;32037;50.820;6.494;2022-09-03T11:39:52;2.20;;;1.60;;
46308;SDS011;32037;50.820;6.494;2022-09-03T11:42:30;1.93;;;1.83;;
46308;SDS011;32037;50.820;6.494;2022-09-03T11:45:12;2.00;;;1.30;;
46308;SDS011;32037;50.820;6.494;2022-09-03T11:47:47;1.80;;;1.70;;
46308;SDS011;32037;50.820;6.494;2022-09-03T11:50:21;2.33;;;1.63;;
46308;SDS011;32037;50.820;6.494;2022-09-03T11:52:52;1.77;;;1.60;;
46308;SDS011;32037;50.820;6.494;2022-09-03T11:55:25;2.37;;;2.17;;
46308;SDS011;32037;50.820;6.494;2022-09-03T11:58:11;2.63;;;1.80;;
46308;SDS011;32037;50.820;6.494;2022-09-03T12:00:47;1.90;;;1.47;;
46308;SDS011;32037;50.820;6.494;2022-09-03T12:03:16;1.80;;;1.27;;
46308;SDS011;32037;50.820;6.494;2022-09-03T12:05:52;1.87;;;1.40;;
46308;SDS011;32037;50.820;6.494;2022-09-03T12:08:46;1.83;;;1.70;;
46308;SDS011;32037;50.820;6.494;2022-09-03T12:11:28;1.90;;;1.80;;
46308;SDS011;32037;50.820;6.494;2022-09-03T12:14:07;1.90;;;1.67;;
46308;SDS011;32037;50.820;6.494;2022-09-03T12:16:48;2.00;;;1.80;;
46308;SDS011;32037;50.820;6.494;2022-09-03T12:19:28;2.17;;;1.97;;
46308;SDS011;32037;50.820;6.494;2022-09-03T12:22:05;1.60;;;1.50;;
46308;SDS011;32037;50.820;6.494;2022-09-03T12:24:34;1.90;;;1.77;;
46308;SDS011;32037;50.820;6.494;2022-09-03T12:27:04;2.10;;;2.00;;
46308;SDS011;32037;50.820;6.494;2022-09-03T12:29:33;2.23;;;2.10;;
46308;SDS011;32037;50.820;6.494;2022-09-03T12:32:05;1.87;;;1.60;;
46308;SDS011;32037;50.820;6.494;2022-09-03T12:34:36;1.90;;;1.80;;
46308;SDS011;32037;50.820;6.494;2022-09-03T12:37:13;1.90;;;1.70;;
46308;SDS011;32037;50.820;6.494;2022-09-03T12:40:14;2.27;;;1.67;;
46308;SDS011;32037;50.820;6.494;2022-09-03T12:42:44;2.00;;;1.90;;
46308;SDS011;32037;50.820;6.494;2022-09-03T12:45:13;1.90;;;1.80;;
46308;SDS011;32037;50.820;6.494;2022-09-03T12:47:45;1.90;;;1.50;;
46308;SDS011;32037;50.820;6.494;2022-09-03T12:50:15;2.13;;;1.97;;
46308;SDS011;32037;50.820;6.494;2022-09-03T12:52:47;1.90;;;1.80;;
46308;SDS011;32037;50.820;6.494;2022-09-03T12:55:30;4.63;;;1.80;;
46308;SDS011;32037;50.820;6.494;2022-09-03T12:58:04;1.60;;;1.50;;
46308;SDS011;32037;50.820;6.494;2022-09-03T13:00:40;2.07;;;1.87;;
46308;SDS011;32037;50.820;6.494;2022-09-03T13:03:13;1.93;;;1.73;;
46308;SDS011;32037;50.820;6.494;2022-09-03T13:05:47;7.77;;;2.30;;
46308;SDS011;32037;50.820;6.494;2022-09-03T13:08:21;2.30;;;2.10;;
46308;SDS011;32037;50.820;6.494;2022-09-03T13:10:52;2.13;;;2.03;;
46308;SDS011;32037;50.820;6.494;2022-09-03T13:13:23;1.70;;;1.60;;
46308;SDS011;32037;50.820;6.494;2022-09-03T13:15:54;2.13;;;2.03;;
46308;SDS011;32037;50.820;6.494;2022-09-03T13:18:30;1.90;;;1.80;;
46308;SDS011;32037;50.820;6.494;2022-09-03T13:21:12;2.23;;;2.07;;
46308;SDS011;32037;50.820;6.494;2022-09-03T13:23:52;2.30;;;2.10;;
46308;SDS011;32037;50.820;6.494;2022-09-03T13:26:32;1.80;;;1.70;;
46308;SDS011;32037;50.820;6.494;2022-09-03T13:32:22;2.17;;;1.70;;
46308;SDS011;32037;50.820;6.494;2022-09-03T13:34:56;4.17;;;2.20;;
46308;SDS011;32037;50.820;6.494;2022-09-03T13:37:29;1.80;;;1.70;;
46308;SDS011;32037;50.820;6.494;2022-09-03T13:40:11;1.70;;;1.60;;
46308;SDS011;32037;50.820;6.494;2022-09-03T13:42:44;2.10;;;1.90;;
46308;SDS011;32037;50.820;6.494;2022-09-03T13:45:26;1.93;;;1.83;;
46308;SDS011;32037;50.820;6.494;2022-09-03T13:47:59;2.10;;;2.00;;
46308;SDS011;32037;50.820;6.494;2022-09-03T13:50:51;2.20;;;2.00;;
46308;SDS011;32037;50.820;6.494;2022-09-03T13:53:29;1.83;;;1.73;;
46308;SDS011;32037;50.820;6.494;2022-09-03T13:56:06;2.30;;;2.10;;
46308;SDS011;32037;50.820;6.494;2022-09-03T13:58:45;1.80;;;1.70;;
46308;SDS011;32037;50.820;6.494;2022-09-03T14:01:20;2.00;;;1.90;;
46308;SDS011;32037;50.820;6.494;2022-09-03T14:03:53;1.60;;;1.50;;
46308;SDS011;32037;50.820;6.494;2022-09-03T14:06:33;1.90;;;1.80;;
46308;SDS011;32037;50.820;6.494;2022-09-03T14:09:10;1.90;;;1.80;;
46308;SDS011;32037;50.820;6.494;2022-09-03T14:11:59;2.00;;;1.87;;
46308;SDS011;32037;50.820;6.494;2022-09-03T14:14:34;2.10;;;2.00;;
46308;SDS011;32037;50.820;6.494;2022-09-03T14:17:09;2.40;;;2.20;;
46308;SDS011;32037;50.820;6.494;2022-09-03T14:19:42;2.70;;;2.50;;
46308;SDS011;32037;50.820;6.494;2022-09-03T14:22:19;1.77;;;1.67;;
46308;SDS011;32037;50.820;6.494;2022-09-03T14:24:50;2.30;;;2.00;;
46308;SDS011;32037;50.820;6.494;2022-09-03T14:27:25;2.17;;;2.00;;
46308;SDS011;32037;50.820;6.494;2022-09-03T14:29:57;1.93;;;1.83;;
46308;SDS011;32037;50.820;6.494;2022-09-03T14:32:31;2.10;;;1.93;;
46308;SDS011;32037;50.820;6.494;2022-09-03T14:35:12;2.07;;;1.87;;
46308;SDS011;32037;50.820;6.494;2022-09-03T14:37:59;2.70;;;2.10;;
46308;SDS011;32037;50.820;6.494;2022-09-03T14:40:52;2.70;;;2.50;;
46308;SDS011;32037;50.820;6.494;2022-09-03T14:43:45;2.43;;;2.23;;
46308;SDS011;32037;50.820;6.494;2022-09-03T14:46:36;2.07;;;1.97;;
46308;SDS011;32037;50.820;6.494;2022-09-03T14:49:16;1.97;;;1.87;;
46308;SDS011;32037;50.820;6.494;2022-09-03T14:52:09;2.60;;;2.17;;
46308;SDS011;32037;50.820;6.494;2022-09-03T14:54:49;2.03;;;1.93;;
46308;SDS011;32037;50.820;6.494;2022-09-03T14:57:42;1.90;;;1.80;;
46308;SDS011;32037;50.820;6.494;2022-09-03T15:00:30;2.50;;;2.30;;
46308;SDS011;32037;50.820;6.494;2022-09-03T15:03:15;2.47;;;2.28;;
46308;SDS011;32037;50.820;6.494;2022-09-03T15:06:01;2.20;;;2.00;;
46308;SDS011;32037;50.820;6.494;2022-09-03T15:08:38;1.67;;;1.58;;
46308;SDS011;32037;50.820;6.494;2022-09-03T15:11:17;2.30;;;2.10;;
46308;SDS011;32037;50.820;6.494;2022-09-03T15:13:50;2.10;;;2.00;;
46308;SDS011;32037;50.820;6.494;2022-09-03T15:16:29;1.90;;;1.80;;
46308;SDS011;32037;50.820;6.494;2022-09-03T15:19:12;2.20;;;1.90;;
46308;SDS011;32037;50.820;6.494;2022-09-03T15:21:59;2.07;;;1.97;;
46308;SDS011;32037;50.820;6.494;2022-09-03T15:24:42;2.70;;;1.90;;
46308;SDS011;32037;50.820;6.494;2022-09-03T15:27:27;1.53;;;1.43;;
46308;SDS011;32037;50.820;6.494;2022-09-03T15:30:07;2.00;;;1.90;;
46308;SDS011;32037;50.820;6.494;2022-09-03T15:32:41;2.40;;;1.97;;
46308;SDS011;32037;50.820;6.494;2022-09-03T15:35:30;2.63;;;2.40;;
46308;SDS011;32037;50.820;6.494;2022-09-03T15:38:07;2.20;;;1.47;;
46308;SDS011;32037;50.820;6.494;2022-09-03T15:40:40;1.70;;;1.60;;
46308;SDS011;32037;50.820;6.494;2022-09-03T15:43:16;2.40;;;1.80;;
46308;SDS011;32037;50.820;6.494;2022-09-03T15:45:51;1.90;;;1.80;;
46308;SDS011;32037;50.820;6.494;2022-09-03T15:48:33;1.90;;;1.70;;